This is the latest recevied weather packets stored in our database for station/object PU2XNA. If no packets are shown the sender has not sent any weather packets the latest 10 day(s).
| Time | Temp. | Humidity | Pressure | Rain* | Wind** | Luminosity | Snow |
|---|---|---|---|---|---|---|---|
| 1787518802 | 25.56° C | 36% | 1014.4 hPa | - | - | - | - |
| 1787517902 | 26.11° C | 34% | 1014.3 hPa | - | - | - | - |
| 1787517002 | 26.67° C | 33% | 1014.1 hPa | - | - | - | - |
| 1787516102 | 26.67° C | 32% | 1014 hPa | - | - | - | - |
| 1787515203 | 27.22° C | 32% | 1013.9 hPa | - | - | - | - |
| 1787514304 | 27.22° C | 31% | 1013.7 hPa | - | - | - | - |
| 1787513403 | 27.78° C | 32% | 1013.8 hPa | - | - | - | - |
| 1787512503 | 27.78° C | 32% | 1013.7 hPa | - | - | - | - |
| 1787511603 | 28.33° C | 32% | 1013.7 hPa | - | - | - | - |
| 1787510703 | 28.33° C | 31% | 1013.7 hPa | - | - | - | - |
| 1787509803 | 28.33° C | 30% | 1013.7 hPa | - | - | - | - |
| 1787508903 | 28.89° C | 30% | 1013.8 hPa | - | - | - | - |
| 1787508004 | 28.89° C | 32% | 1014 hPa | - | - | - | - |
| 1787507103 | 29.44° C | 30% | 1014.1 hPa | - | - | - | - |
| 1787506203 | 29.44° C | 30% | 1014.3 hPa | - | - | - | - |
| 1787505303 | 29.44° C | 31% | 1014.5 hPa | - | - | - | - |
| 1787504402 | 30° C | 31% | 1014.9 hPa | - | - | - | - |
| 1787503503 | 30° C | 32% | 1015.1 hPa | - | - | - | - |
| 1787502603 | 30° C | 31% | 1015.4 hPa | - | - | - | - |
| 1787501703 | 30° C | 32% | 1015.7 hPa | - | - | - | - |
| 1787500803 | 30° C | 31% | 1015.9 hPa | - | - | - | - |
| 1787499903 | 29.44° C | 33% | 1016.1 hPa | - | - | - | - |
| 1787499004 | 30° C | 32% | 1016.3 hPa | - | - | - | - |
| 1787498102 | 29.44° C | 35% | 1016.5 hPa | - | - | - | - |
| 1787497202 | 29.44° C | 36% | 1016.8 hPa | - | - | - | - |
* Rain since midnight (hover to see other rain measurements)
** Current wind speed in m/s (hover to see current wind gust speed)